Time,TemperatureF,DewpointF,PressureIn,WindDirection,WindDirectionDegrees,WindSpeedMPH,WindSpeedGustMPH,Humidity,HourlyPrecipIn,Conditions,Clouds,dailyrainin,SoftwareType,DateUTC
2013-10-04 00:00:00,68.3,63.3,29.92,SSW,197,0.0,0.0,84,0.00,CLR,,0.00,WeatherDisplay:10.37,2013-10-04 04:00:00,
2013-10-04 00:31:00,67.9,62.9,29.91,SSW,196,0.0,0.0,84,0.00,CLR,,0.00,WeatherDisplay:10.37,2013-10-04 04:31:00,
2013-10-04 00:32:00,67.9,62.9,29.91,SSW,196,0.0,0.0,84,0.00,CLR,,0.00,WeatherDisplay:10.37,2013-10-04 04:32:00,
2013-10-04 00:33:00,67.9,63.2,29.91,SSW,196,0.0,0.0,85,0.00,CLR,,0.00,WeatherDisplay:10.37,2013-10-04 04:33:00,
2013-10-04 00:35:00,67.9,62.9,29.91,SSW,196,0.0,0.0,84,0.00,CLR,,0.00,WeatherDisplay:10.37,2013-10-04 04:35:00,
2013-10-04 00:36:00,67.9,62.9,29.91,SSW,197,0.0,0.0,84,0.00,CLR,,0.02,WeatherDisplay:10.37,2013-10-04 04:36:00,
2013-10-04 00:37:00,67.9,62.9,29.91,SSW,196,0.0,0.0,84,0.02,RA,,0.02,WeatherDisplay:10.37,2013-10-04 04:37:00,
2013-10-04 00:40:00,67.8,63.1,29.92,WSW,251,0.0,0.0,85,0.03,RA,,0.03,WeatherDisplay:10.37,2013-10-04 04:40:00,
2013-10-04 00:42:00,67.8,63.5,29.92,NW,305,1.2,0.0,86,0.04,RA,,0.04,WeatherDisplay:10.37,2013-10-04 04:42:00,
2013-10-04 00:43:00,67.7,63.4,29.92,NW,306,0.0,0.0,86,0.04,RA,,0.05,WeatherDisplay:10.37,2013-10-04 04:43:00,
2013-10-04 00:45:00,67.5,63.2,29.91,NW,306,0.0,0.0,86,0.07,RA,,0.07,WeatherDisplay:10.37,2013-10-04 04:45:00,
2013-10-04 00:46:00,67.5,63.5,29.91,NW,306,0.0,0.0,87,0.07,RA,,0.07,WeatherDisplay:10.37,2013-10-04 04:46:00,
2013-10-04 00:48:00,67.3,63.3,29.91,NW,306,0.0,0.0,87,0.07,RA,,0.07,WeatherDisplay:10.37,2013-10-04 04:48:00,
2013-10-04 00:55:00,66.8,63.1,29.90,NW,306,0.0,0.0,88,0.07,RA,,0.07,WeatherDisplay:10.37,2013-10-04 04:55:00,
2013-10-04 00:56:00,66.7,63.4,29.90,NW,306,0.0,0.0,89,0.07,,,0.07,WeatherDisplay:10.37,2013-10-04 04:56:00,
2013-10-04 01:00:00,66.6,63.3,29.90,NW,306,0.0,0.0,89,0.07,CLR,,0.07,WeatherDisplay:10.37,2013-10-04 05:00:00,
2013-10-04 01:02:00,66.6,63.3,29.90,NW,306,0.0,0.0,89,0.07,CLR,,0.07,WeatherDisplay:10.37,2013-10-04 05:02:00,
2013-10-04 01:03:00,66.6,63.6,29.91,NW,306,0.0,0.0,90,0.07,CLR,,0.07,WeatherDisplay:10.37,2013-10-04 05:03:00,
2013-10-04 01:05:00,66.6,63.6,29.91,NW,306,0.0,0.0,90,0.07,CLR,,0.07,WeatherDisplay:10.37,2013-10-04 05:05:00,
2013-10-04 01:06:00,66.6,63.6,29.90,NW,306,0.0,0.0,90,0.07,CLR,,0.07,WeatherDisplay:10.37,2013-10-04 05:06:00,
2013-10-04 01:09:00,66.6,63.6,29.91,NW,306,0.0,0.0,90,0.07,CLR,,0.07,WeatherDisplay:10.37,2013-10-04 05:09:00,
2013-10-04 01:11:00,66.7,63.7,29.90,NW,306,0.0,0.0,90,0.07,CLR,,0.07,WeatherDisplay:10.37,2013-10-04 05:11:00,
2013-10-04 01:14:00,66.7,63.7,29.91,NW,306,0.0,0.0,90,0.07,CLR,,0.07,WeatherDisplay:10.37,2013-10-04 05:14:00,
2013-10-04 01:16:00,66.7,64.0,29.90,NW,306,0.0,0.0,91,0.07,CLR,,0.07,WeatherDisplay:10.37,2013-10-04 05:16:00,
2013-10-04 01:17:00,66.8,64.1,29.91,NW,306,0.0,0.0,91,0.07,CLR,,0.07,WeatherDisplay:10.37,2013-10-04 05:17:00,
2013-10-04 01:19:00,66.8,64.1,29.90,NW,306,0.0,0.0,91,0.07,CLR,,0.07,WeatherDisplay:10.37,2013-10-04 05:19:00,
2013-10-04 01:24:00,66.8,64.1,29.90,NW,306,0.0,0.0,91,0.07,CLR,,0.07,WeatherDisplay:10.37,2013-10-04 05:24:00,
2013-10-04 01:32:00,66.4,63.7,29.90,NW,306,0.0,0.0,91,0.07,CLR,,0.07,WeatherDisplay:10.37,2013-10-04 05:32:00,
2013-10-04 01:37:00,66.5,64.1,29.90,NW,306,0.0,0.0,92,0.07,CLR,,0.07,WeatherDisplay:10.37,2013-10-04 05:37:00,
2013-10-04 01:42:00,66.4,64.0,29.90,NW,306,0.0,0.0,92,0.04,CLR,,0.07,WeatherDisplay:10.37,2013-10-04 05:42:00,
2013-10-04 01:47:00,66.1,63.7,29.90,NW,306,0.0,0.0,92,0.01,CLR,,0.07,WeatherDisplay:10.37,2013-10-04 05:47:00,
2013-10-04 01:52:00,66.1,63.7,29.90,NW,306,0.0,0.0,92,0.00,CLR,,0.07,WeatherDisplay:10.37,2013-10-04 05:52:00,
2013-10-04 01:57:00,66.0,63.6,29.91,NW,306,0.0,0.0,92,0.00,CLR,,0.07,WeatherDisplay:10.37,2013-10-04 05:57:00,
2013-10-04 02:02:00,66.1,63.7,29.91,NW,306,0.0,0.0,92,0.00,CLR,,0.07,WeatherDisplay:10.37,2013-10-04 06:02:00,
2013-10-04 02:07:00,66.0,63.6,29.91,NW,306,0.0,0.0,92,0.00,CLR,,0.07,WeatherDisplay:10.37,2013-10-04 06:07:00,
2013-10-04 02:12:00,66.1,63.7,29.91,NW,306,0.0,0.0,92,0.00,CLR,,0.07,WeatherDisplay:10.37,2013-10-04 06:12:00,
2013-10-04 02:17:00,66.0,63.6,29.92,WSW,249,0.0,0.0,92,0.00,CLR,,0.07,WeatherDisplay:10.37,2013-10-04 06:17:00,
2013-10-04 02:22:00,66.0,63.6,29.92,WSW,247,0.0,0.0,92,0.00,CLR,,0.07,WeatherDisplay:10.37,2013-10-04 06:22:00,
2013-10-04 02:27:00,65.9,63.5,29.92,WSW,246,0.0,0.0,92,0.00,CLR,,0.07,WeatherDisplay:10.37,2013-10-04 06:27:00,
2013-10-04 02:32:00,65.9,63.5,29.92,WSW,246,0.0,0.0,92,0.00,CLR,,0.07,WeatherDisplay:10.37,2013-10-04 06:32:00,
2013-10-04 02:37:00,65.9,63.5,29.92,WSW,242,0.0,0.0,92,0.00,CLR,,0.07,WeatherDisplay:10.37,2013-10-04 06:37:00,
2013-10-04 02:42:00,65.9,63.5,29.92,SW,231,0.0,0.0,92,0.00,CLR,,0.07,WeatherDisplay:10.37,2013-10-04 06:42:00,
2013-10-04 02:47:00,65.9,63.5,29.92,SW,233,4.6,4.6,92,0.00,CLR,,0.07,WeatherDisplay:10.37,2013-10-04 06:47:00,
2013-10-04 02:52:00,66.0,63.6,29.92,WSW,239,5.8,5.8,92,0.00,CLR,,0.07,WeatherDisplay:10.37,2013-10-04 06:52:00,
2013-10-04 02:57:00,66.2,63.8,29.92,SW,225,5.8,5.8,92,0.00,CLR,,0.07,WeatherDisplay:10.37,2013-10-04 06:57:00,
2013-10-04 03:02:00,66.3,63.6,29.91,SW,234,5.8,5.8,91,0.00,CLR,,0.07,WeatherDisplay:10.37,2013-10-04 07:02:00,
2013-10-04 03:07:00,66.4,63.7,29.91,WSW,238,8.1,8.1,91,0.00,CLR,,0.07,WeatherDisplay:10.37,2013-10-04 07:07:00,
2013-10-04 03:12:00,66.4,63.7,29.91,WSW,250,9.2,9.2,91,0.01,RA,,0.08,WeatherDisplay:10.37,2013-10-04 07:12:00,
2013-10-04 03:17:00,66.3,63.3,29.91,WSW,247,15.0,15.0,90,0.03,RA,,0.10,WeatherDisplay:10.37,2013-10-04 07:17:00,
2013-10-04 03:22:00,66.2,63.5,29.90,SW,220,11.5,11.5,91,0.05,RA,,0.12,WeatherDisplay:10.37,2013-10-04 07:22:00,
2013-10-04 03:27:00,66.1,63.4,29.90,SW,223,9.2,9.2,91,0.06,RA,,0.13,WeatherDisplay:10.37,2013-10-04 07:27:00,
2013-10-04 03:32:00,66.0,63.3,29.90,SSW,208,9.2,9.2,91,0.06,RA,,0.13,WeatherDisplay:10.37,2013-10-04 07:32:00,
2013-10-04 03:37:00,65.8,63.1,29.90,SSW,202,4.3,4.3,91,0.06,,,0.13,WeatherDisplay:10.37,2013-10-04 07:37:00,
2013-10-04 03:42:00,65.7,63.0,29.90,SW,216,3.5,0.0,91,0.06,CLR,,0.13,WeatherDisplay:10.37,2013-10-04 07:42:00,
2013-10-04 03:47:00,65.6,63.2,29.89,SW,216,0.0,0.0,92,0.06,CLR,,0.13,WeatherDisplay:10.37,2013-10-04 07:47:00,
2013-10-04 03:52:00,65.6,63.2,29.89,SW,216,0.0,0.0,92,0.07,RA,,0.14,WeatherDisplay:10.37,2013-10-04 07:52:00,
2013-10-04 03:57:00,65.6,63.2,29.89,SSW,204,0.0,0.0,92,0.08,RA,,0.15,WeatherDisplay:10.37,2013-10-04 07:57:00,
2013-10-04 04:02:00,65.5,63.1,29.89,SSE,157,0.0,0.0,92,0.09,RA,,0.16,WeatherDisplay:10.37,2013-10-04 08:02:00,
2013-10-04 04:07:00,65.4,63.0,29.89,SSE,158,0.0,0.0,92,0.10,RA,,0.17,WeatherDisplay:10.37,2013-10-04 08:07:00,
2013-10-04 04:12:00,65.5,63.4,29.89,SSE,158,0.0,0.0,93,0.09,RA,,0.17,WeatherDisplay:10.37,2013-10-04 08:12:00,
2013-10-04 04:17:00,65.9,63.8,29.89,SSE,157,0.0,0.0,93,0.07,CLR,,0.17,WeatherDisplay:10.37,2013-10-04 08:17:00,
2013-10-04 04:22:00,65.8,63.7,29.89,ESE,112,0.0,0.0,93,0.05,CLR,,0.17,WeatherDisplay:10.37,2013-10-04 08:22:00,
2013-10-04 04:27:00,65.5,63.4,29.89,NE,35,3.5,3.5,93,0.04,CLR,,0.17,WeatherDisplay:10.37,2013-10-04 08:27:00,
2013-10-04 04:32:00,65.4,63.3,29.89,NE,34,0.0,0.0,93,0.04,CLR,,0.17,WeatherDisplay:10.37,2013-10-04 08:32:00,
2013-10-04 04:37:00,65.5,63.4,29.88,NE,35,0.0,0.0,93,0.04,CLR,,0.17,WeatherDisplay:10.37,2013-10-04 08:37:00,
2013-10-04 04:42:00,65.4,63.3,29.88,NE,34,0.0,0.0,93,0.04,CLR,,0.17,WeatherDisplay:10.37,2013-10-04 08:42:00,
2013-10-04 04:47:00,65.5,63.4,29.88,NE,34,0.0,0.0,93,0.04,CLR,,0.17,WeatherDisplay:10.37,2013-10-04 08:47:00,
2013-10-04 04:52:00,65.5,63.4,29.88,SE,127,0.0,0.0,93,0.03,CLR,,0.17,WeatherDisplay:10.37,2013-10-04 08:52:00,
2013-10-04 04:57:00,65.4,63.3,29.88,SSW,195,0.0,1.2,93,0.02,CLR,,0.17,WeatherDisplay:10.37,2013-10-04 08:57:00,
2013-10-04 05:02:00,65.4,63.3,29.88,SSW,196,0.0,0.0,93,0.01,CLR,,0.17,WeatherDisplay:10.37,2013-10-04 09:02:00,
2013-10-04 05:08:00,65.5,63.4,29.88,SSW,196,0.0,0.0,93,0.00,CLR,,0.17,WeatherDisplay:10.37,2013-10-04 09:08:00,
2013-10-04 05:13:00,65.6,63.5,29.88,WSW,239,1.2,0.0,93,0.00,CLR,,0.17,WeatherDisplay:10.37,2013-10-04 09:13:00,
2013-10-04 05:18:00,65.7,63.6,29.89,WSW,238,0.0,0.0,93,0.00,CLR,,0.17,WeatherDisplay:10.37,2013-10-04 09:18:00,
2013-10-04 05:23:00,65.8,63.7,29.89,WSW,239,0.0,0.0,93,0.00,CLR,,0.17,WeatherDisplay:10.37,2013-10-04 09:23:00,
2013-10-04 05:28:00,65.8,63.4,29.90,WSW,239,0.0,0.0,92,0.00,CLR,,0.18,WeatherDisplay:10.37,2013-10-04 09:28:00,
2013-10-04 05:33:00,65.7,63.6,29.91,WSW,239,0.0,0.0,93,0.01,RA,,0.18,WeatherDisplay:10.37,2013-10-04 09:33:00,
2013-10-04 05:38:00,65.7,63.6,29.91,WSW,239,0.0,0.0,93,0.01,RA,,0.18,WeatherDisplay:10.37,2013-10-04 09:38:00,
2013-10-04 05:43:00,65.6,63.5,29.91,WSW,239,0.0,0.0,93,0.01,CLR,,0.19,WeatherDisplay:10.37,2013-10-04 09:43:00,
2013-10-04 05:48:00,65.6,63.2,29.91,WSW,239,0.0,0.0,92,0.02,RA,,0.19,WeatherDisplay:10.37,2013-10-04 09:48:00,
2013-10-04 05:53:00,65.7,63.6,29.92,WSW,239,0.0,0.0,93,0.02,RA,,0.19,WeatherDisplay:10.37,2013-10-04 09:53:00,
2013-10-04 05:58:00,65.6,63.5,29.91,WSW,239,0.0,0.0,93,0.02,CLR,,0.19,WeatherDisplay:10.37,2013-10-04 09:58:00,
2013-10-04 06:03:00,65.5,63.4,29.92,WSW,239,0.0,0.0,93,0.02,CLR,,0.19,WeatherDisplay:10.37,2013-10-04 10:03:00,
2013-10-04 06:08:00,65.3,63.2,29.92,WSW,239,0.0,0.0,93,0.02,CLR,,0.19,WeatherDisplay:10.37,2013-10-04 10:08:00,
2013-10-04 06:13:00,65.3,63.2,29.93,WSW,239,0.0,0.0,93,0.02,CLR,,0.19,WeatherDisplay:10.37,2013-10-04 10:13:00,
2013-10-04 06:18:00,65.3,63.2,29.93,WSW,239,0.0,0.0,93,0.02,CLR,,0.19,WeatherDisplay:10.37,2013-10-04 10:18:00,
2013-10-04 06:23:00,65.3,63.2,29.93,WSW,239,0.0,0.0,93,0.02,CLR,,0.19,WeatherDisplay:10.37,2013-10-04 10:23:00,
2013-10-04 06:28:00,65.3,63.5,29.93,WSW,239,0.0,0.0,94,0.02,CLR,,0.19,WeatherDisplay:10.37,2013-10-04 10:28:00,
2013-10-04 06:33:00,65.4,63.6,29.93,WSW,239,0.0,0.0,94,0.01,CLR,,0.19,WeatherDisplay:10.37,2013-10-04 10:33:00,
2013-10-04 06:38:00,65.2,63.4,29.93,WSW,239,0.0,0.0,94,0.01,CLR,,0.19,WeatherDisplay:10.37,2013-10-04 10:38:00,
2013-10-04 06:43:00,65.2,63.4,29.93,WSW,239,0.0,0.0,94,0.00,CLR,,0.19,WeatherDisplay:10.37,2013-10-04 10:43:00,
2013-10-04 06:48:00,65.2,63.4,29.93,WSW,239,0.0,0.0,94,0.00,CLR,,0.19,WeatherDisplay:10.37,2013-10-04 10:48:00,
2013-10-04 06:53:00,65.1,63.3,29.92,WSW,239,0.0,0.0,94,0.00,CLR,,0.19,WeatherDisplay:10.37,2013-10-04 10:53:00,
2013-10-04 06:58:00,65.1,63.3,29.92,WSW,239,0.0,0.0,94,0.00,CLR,,0.19,WeatherDisplay:10.37,2013-10-04 10:58:00,
2013-10-04 07:03:00,65.0,63.2,29.92,WSW,239,0.0,0.0,94,0.00,CLR,,0.19,WeatherDisplay:10.37,2013-10-04 11:03:00,
2013-10-04 07:08:00,64.9,63.1,29.93,WSW,239,0.0,0.0,94,0.00,CLR,,0.19,WeatherDisplay:10.37,2013-10-04 11:08:00,
2013-10-04 07:14:00,65.0,63.2,29.93,WSW,239,0.0,0.0,94,0.00,CLR,,0.19,WeatherDisplay:10.37,2013-10-04 11:14:00,
2013-10-04 07:19:00,65.0,63.2,29.93,WSW,239,0.0,0.0,94,0.00,CLR,,0.19,WeatherDisplay:10.37,2013-10-04 11:19:00,
2013-10-04 07:24:00,64.8,63.0,29.94,WSW,239,0.0,0.0,94,0.00,CLR,,0.19,WeatherDisplay:10.37,2013-10-04 11:24:00,
2013-10-04 07:29:00,64.8,63.0,29.94,WSW,238,0.0,0.0,94,0.00,CLR,,0.19,WeatherDisplay:10.37,2013-10-04 11:29:00,
2013-10-04 07:34:00,64.7,62.9,29.94,WSW,237,0.0,0.0,94,0.00,CLR,,0.19,WeatherDisplay:10.37,2013-10-04 11:34:00,
2013-10-04 07:39:00,64.7,62.9,29.94,SW,235,0.0,0.0,94,0.00,CLR,,0.19,WeatherDisplay:10.37,2013-10-04 11:39:00,
2013-10-04 07:44:00,64.6,62.8,29.95,SW,215,0.0,0.0,94,0.00,CLR,,0.19,WeatherDisplay:10.37,2013-10-04 11:44:00,
2013-10-04 07:49:00,64.6,62.8,29.95,SW,226,0.0,0.0,94,0.00,CLR,,0.19,WeatherDisplay:10.37,2013-10-04 11:49:00,
2013-10-04 07:54:00,64.4,62.6,29.96,SW,233,4.6,4.6,94,0.00,CLR,,0.19,WeatherDisplay:10.37,2013-10-04 11:54:00,
2013-10-04 07:59:00,64.4,62.6,29.96,SW,235,0.0,0.0,94,0.00,CLR,,0.19,WeatherDisplay:10.37,2013-10-04 11:59:00,
2013-10-04 08:04:00,64.5,62.7,29.96,SW,234,0.0,0.0,94,0.00,CLR,,0.19,WeatherDisplay:10.37,2013-10-04 12:04:00,
2013-10-04 08:09:00,64.5,62.7,29.96,SW,234,0.0,0.0,94,0.00,CLR,,0.19,WeatherDisplay:10.37,2013-10-04 12:09:00,
2013-10-04 08:14:00,64.6,62.8,29.96,SW,231,0.0,0.0,94,0.00,CLR,,0.19,WeatherDisplay:10.37,2013-10-04 12:14:00,
2013-10-04 08:19:00,64.6,62.8,29.96,SW,230,0.0,0.0,94,0.00,CLR,,0.19,WeatherDisplay:10.37,2013-10-04 12:19:00,
2013-10-04 08:24:00,64.6,62.8,29.96,SSW,201,0.0,0.0,94,0.00,CLR,,0.19,WeatherDisplay:10.37,2013-10-04 12:24:00,
2013-10-04 08:29:00,64.6,62.8,29.96,SSW,201,0.0,0.0,94,0.00,CLR,,0.19,WeatherDisplay:10.37,2013-10-04 12:29:00,
2013-10-04 08:34:00,64.7,62.9,29.96,SSW,201,0.0,0.0,94,0.00,CLR,,0.19,WeatherDisplay:10.37,2013-10-04 12:34:00,
2013-10-04 08:39:00,64.8,63.0,29.96,SSW,201,0.0,0.0,94,0.00,CLR,,0.19,WeatherDisplay:10.37,2013-10-04 12:39:00,
2013-10-04 08:44:00,65.0,63.2,29.96,SSW,201,0.0,0.0,94,0.00,CLR,,0.19,WeatherDisplay:10.37,2013-10-04 12:44:00,
2013-10-04 08:49:00,65.0,63.2,29.96,SSW,200,0.0,0.0,94,0.00,CLR,,0.19,WeatherDisplay:10.37,2013-10-04 12:49:00,
2013-10-04 08:54:00,65.0,63.2,29.96,SSW,201,0.0,0.0,94,0.00,CLR,,0.19,WeatherDisplay:10.37,2013-10-04 12:54:00,
2013-10-04 08:59:00,65.0,63.2,29.97,SSW,201,0.0,0.0,94,0.00,CLR,,0.19,WeatherDisplay:10.37,2013-10-04 12:59:00,
2013-10-04 09:04:00,65.0,63.2,29.96,SW,217,0.0,4.0,94,0.00,CLR,,0.19,WeatherDisplay:10.37,2013-10-04 13:04:00,
2013-10-04 09:09:00,65.2,63.4,29.96,SW,224,0.0,0.0,94,0.00,CLR,,0.19,WeatherDisplay:10.37,2013-10-04 13:09:00,
2013-10-04 09:14:00,65.4,63.3,29.96,SW,228,1.2,1.2,93,0.00,CLR,,0.19,WeatherDisplay:10.37,2013-10-04 13:14:00,
2013-10-04 09:19:00,65.6,63.5,29.96,SW,235,1.2,2.4,93,0.00,CLR,,0.19,WeatherDisplay:10.37,2013-10-04 13:19:00,
2013-10-04 09:24:00,65.8,63.7,29.96,SSW,212,8.1,0.0,93,0.00,CLR,,0.19,WeatherDisplay:10.37,2013-10-04 13:24:00,
2013-10-04 09:29:00,66.2,64.1,29.96,SW,233,0.0,0.0,93,0.00,CLR,,0.19,WeatherDisplay:10.37,2013-10-04 13:29:00,
2013-10-04 09:34:00,66.5,64.1,29.96,West,262,2.1,2.1,92,0.00,CLR,,0.19,WeatherDisplay:10.37,2013-10-04 13:34:00,
2013-10-04 09:39:00,66.3,63.9,29.96,WSW,255,0.0,0.0,92,0.00,CLR,,0.19,WeatherDisplay:10.37,2013-10-04 13:39:00,
2013-10-04 09:44:00,66.5,64.1,29.96,WSW,254,0.0,0.0,92,0.00,CLR,,0.19,WeatherDisplay:10.37,2013-10-04 13:44:00,
2013-10-04 09:49:00,66.4,64.0,29.96,WSW,254,0.0,0.0,92,0.00,CLR,,0.19,WeatherDisplay:10.37,2013-10-04 13:49:00,
2013-10-04 09:54:00,66.3,63.6,29.96,West,270,0.0,0.0,91,0.00,CLR,,0.19,WeatherDisplay:10.37,2013-10-04 13:54:00,
2013-10-04 09:59:00,66.4,63.7,29.96,WSW,257,0.0,0.0,91,0.00,CLR,,0.19,WeatherDisplay:10.37,2013-10-04 13:59:00,
2013-10-04 10:04:00,66.4,63.7,29.97,WSW,257,0.0,0.0,91,0.00,CLR,,0.19,WeatherDisplay:10.37,2013-10-04 14:04:00,
2013-10-04 10:09:00,66.3,63.6,29.97,WSW,237,0.0,0.0,91,0.00,CLR,,0.19,WeatherDisplay:10.37,2013-10-04 14:09:00,
2013-10-04 10:14:00,66.3,63.6,29.97,West,276,5.8,5.8,91,0.00,CLR,,0.19,WeatherDisplay:10.37,2013-10-04 14:14:00,
2013-10-04 10:19:00,66.5,63.8,29.97,South,191,3.5,3.5,91,0.00,CLR,,0.19,WeatherDisplay:10.37,2013-10-04 14:19:00,
2013-10-04 10:24:00,67.0,64.3,29.97,SW,231,8.1,8.1,91,0.00,CLR,,0.19,WeatherDisplay:10.37,2013-10-04 14:24:00,
2013-10-04 10:29:00,67.1,64.1,29.97,SW,226,9.2,9.2,90,0.00,CLR,,0.19,WeatherDisplay:10.37,2013-10-04 14:29:00,
2013-10-04 10:34:00,67.6,64.6,29.97,SW,219,5.8,5.8,90,0.00,CLR,,0.19,WeatherDisplay:10.37,2013-10-04 14:34:00,
2013-10-04 10:39:00,67.4,64.0,29.97,WSW,242,5.8,5.8,89,0.00,CLR,,0.19,WeatherDisplay:10.37,2013-10-04 14:39:00,
2013-10-04 10:44:00,67.9,64.5,29.98,West,260,1.2,0.0,89,0.00,CLR,,0.19,WeatherDisplay:10.37,2013-10-04 14:44:00,
2013-10-04 10:49:00,68.1,64.4,29.98,WSW,241,5.8,5.8,88,0.00,CLR,,0.19,WeatherDisplay:10.37,2013-10-04 14:49:00,
2013-10-04 10:54:00,68.0,64.3,29.97,WSW,246,5.8,5.8,88,0.00,CLR,,0.19,WeatherDisplay:10.37,2013-10-04 14:54:00,
2013-10-04 10:59:00,68.1,64.4,29.97,SW,222,8.1,8.1,88,0.00,CLR,,0.19,WeatherDisplay:10.37,2013-10-04 14:59:00,
2013-10-04 11:04:00,69.1,65.4,29.97,SW,221,0.0,0.0,88,0.00,CLR,,0.19,WeatherDisplay:10.37,2013-10-04 15:04:00,
2013-10-04 11:09:00,69.5,65.1,29.97,SW,218,0.0,0.0,86,0.00,CLR,,0.19,WeatherDisplay:10.37,2013-10-04 15:09:00,
2013-10-04 11:14:00,69.6,65.2,29.97,SW,218,0.0,0.0,86,0.00,CLR,,0.19,WeatherDisplay:10.37,2013-10-04 15:14:00,
2013-10-04 11:17:00,69.8,65.1,29.97,SW,218,0.0,0.0,85,0.00,CLR,,0.19,WeatherDisplay:10.37,2013-10-04 15:17:00,
2013-10-04 11:22:00,69.7,64.6,29.97,SW,218,0.0,0.0,84,0.00,CLR,,0.19,WeatherDisplay:10.37,2013-10-04 15:22:00,
2013-10-04 11:27:00,69.5,64.8,29.97,SW,236,0.0,0.0,85,0.00,CLR,,0.19,WeatherDisplay:10.37,2013-10-04 15:27:00,
2013-10-04 11:32:00,69.7,64.6,29.97,SW,231,0.0,0.2,84,0.00,CLR,,0.19,WeatherDisplay:10.37,2013-10-04 15:32:00,
2013-10-04 11:37:00,69.9,64.8,29.98,SW,221,1.2,1.2,84,0.00,CLR,,0.19,WeatherDisplay:10.37,2013-10-04 15:37:00,
2013-10-04 11:42:00,69.5,64.1,29.98,SSW,204,0.0,0.0,83,0.00,CLR,,0.19,WeatherDisplay:10.37,2013-10-04 15:42:00,
2013-10-04 11:47:00,69.5,64.1,29.97,SSW,208,0.0,0.0,83,0.00,CLR,,0.19,WeatherDisplay:10.37,2013-10-04 15:47:00,
2013-10-04 11:52:00,69.6,64.5,29.97,SSW,201,1.2,1.2,84,0.00,CLR,,0.19,WeatherDisplay:10.37,2013-10-04 15:52:00,
2013-10-04 11:57:00,69.9,64.8,29.97,SW,215,0.0,0.0,84,0.00,CLR,,0.19,WeatherDisplay:10.37,2013-10-04 15:57:00,
2013-10-04 12:02:00,70.0,64.6,29.97,SSW,193,1.2,0.0,83,0.00,CLR,,0.19,WeatherDisplay:10.37,2013-10-04 16:02:00,
2013-10-04 12:07:00,69.8,64.4,29.97,SSW,199,0.0,0.0,83,0.00,CLR,,0.19,WeatherDisplay:10.37,2013-10-04 16:07:00,
2013-10-04 12:12:00,69.9,64.5,29.97,SSW,199,0.0,0.0,83,0.00,CLR,,0.19,WeatherDisplay:10.37,2013-10-04 16:12:00,
2013-10-04 12:17:00,70.3,64.9,29.97,SSW,201,0.0,0.0,83,0.00,CLR,,0.19,WeatherDisplay:10.37,2013-10-04 16:17:00,
2013-10-04 12:22:00,70.7,64.6,29.97,SSW,200,0.0,0.0,81,0.00,CLR,,0.19,WeatherDisplay:10.37,2013-10-04 16:22:00,
2013-10-04 12:27:00,71.2,65.1,29.97,SSW,201,0.0,0.0,81,0.00,CLR,,0.19,WeatherDisplay:10.37,2013-10-04 16:27:00,
2013-10-04 12:32:00,70.9,64.8,29.98,SSW,213,0.0,0.0,81,0.00,CLR,,0.19,WeatherDisplay:10.37,2013-10-04 16:32:00,
2013-10-04 12:37:00,70.5,64.4,29.98,WSW,245,1.2,0.0,81,0.00,CLR,,0.19,WeatherDisplay:10.37,2013-10-04 16:37:00,
2013-10-04 12:42:00,70.3,64.2,29.98,WSW,245,0.0,0.0,81,0.00,CLR,,0.19,WeatherDisplay:10.37,2013-10-04 16:42:00,
2013-10-04 12:47:00,70.6,64.5,29.98,WSW,245,0.0,0.0,81,0.00,CLR,,0.19,WeatherDisplay:10.37,2013-10-04 16:47:00,
2013-10-04 12:52:00,70.7,64.6,29.98,WSW,256,0.0,0.0,81,0.00,CLR,,0.19,WeatherDisplay:10.37,2013-10-04 16:52:00,
2013-10-04 12:57:00,71.1,65.0,29.98,WNW,287,0.0,0.0,81,0.00,CLR,,0.19,WeatherDisplay:10.37,2013-10-04 16:57:00,
2013-10-04 13:02:00,71.2,65.1,29.98,West,276,0.0,0.0,81,0.00,CLR,,0.19,WeatherDisplay:10.37,2013-10-04 17:02:00,
2013-10-04 13:07:00,71.4,64.5,29.98,West,272,0.0,0.0,79,0.00,CLR,,0.19,WeatherDisplay:10.37,2013-10-04 17:07:00,
2013-10-04 13:12:00,71.3,64.4,29.98,West,269,0.0,0.0,79,0.00,CLR,,0.19,WeatherDisplay:10.37,2013-10-04 17:12:00,
2013-10-04 13:17:00,71.4,64.5,29.98,SW,225,0.0,0.0,79,0.00,CLR,,0.19,WeatherDisplay:10.37,2013-10-04 17:17:00,
2013-10-04 13:22:00,71.8,64.9,29.98,SW,226,0.0,0.0,79,0.00,CLR,,0.19,WeatherDisplay:10.37,2013-10-04 17:22:00,
2013-10-04 13:27:00,72.2,65.0,29.98,WNW,291,0.0,0.0,78,0.00,CLR,,0.19,WeatherDisplay:10.37,2013-10-04 17:27:00,
2013-10-04 13:32:00,72.0,64.8,29.98,WSW,258,3.5,3.5,78,0.00,CLR,,0.19,WeatherDisplay:10.37,2013-10-04 17:32:00,
2013-10-04 13:37:00,71.8,64.6,29.98,SSW,206,4.3,4.3,78,0.00,CLR,,0.19,WeatherDisplay:10.37,2013-10-04 17:37:00,
2013-10-04 14:03:00,71.7,64.5,29.97,SSW,192,7.5,7.5,78,0.00,CLR,,0.19,WeatherDisplay:10.37,2013-10-04 18:03:00,
2013-10-04 14:08:00,71.7,64.8,29.97,South,188,3.5,3.5,79,0.00,CLR,,0.19,WeatherDisplay:10.37,2013-10-04 18:08:00,
2013-10-04 14:13:00,71.9,65.0,29.97,SSW,193,8.1,8.1,79,0.00,CLR,,0.19,WeatherDisplay:10.37,2013-10-04 18:13:00,
2013-10-04 14:18:00,71.9,65.4,29.97,South,169,5.8,5.8,80,0.00,CLR,,0.19,WeatherDisplay:10.37,2013-10-04 18:18:00,
2013-10-04 14:23:00,71.6,64.7,29.97,South,170,5.8,5.8,79,0.00,CLR,,0.19,WeatherDisplay:10.37,2013-10-04 18:23:00,
2013-10-04 14:28:00,71.5,64.6,29.97,SSW,208,0.0,0.0,79,0.00,CLR,,0.19,WeatherDisplay:10.37,2013-10-04 18:28:00,
2013-10-04 14:33:00,71.8,64.9,29.97,SSW,206,4.6,4.6,79,0.00,CLR,,0.19,WeatherDisplay:10.37,2013-10-04 18:33:00,
2013-10-04 14:38:00,71.9,65.0,29.97,SSW,203,0.0,0.0,79,0.00,CLR,,0.19,WeatherDisplay:10.37,2013-10-04 18:38:00,
2013-10-04 14:43:00,72.0,64.8,29.97,SW,222,3.5,3.5,78,0.00,CLR,,0.19,WeatherDisplay:10.37,2013-10-04 18:43:00,
2013-10-04 14:48:00,72.0,65.1,29.97,SSW,211,2.3,0.0,79,0.00,CLR,,0.19,WeatherDisplay:10.37,2013-10-04 18:48:00,
2013-10-04 14:53:00,71.7,65.2,29.96,South,190,0.0,0.0,80,0.00,CLR,,0.19,WeatherDisplay:10.37,2013-10-04 18:53:00,
2013-10-04 14:58:00,71.5,64.6,29.97,SSE,158,3.5,0.0,79,0.00,CLR,,0.19,WeatherDisplay:10.37,2013-10-04 18:58:00,
2013-10-04 15:03:00,71.6,64.7,29.96,South,175,0.0,0.0,79,0.00,CLR,,0.19,WeatherDisplay:10.37,2013-10-04 19:03:00,
2013-10-04 15:08:00,71.6,64.7,29.96,SSE,168,6.9,6.9,79,0.00,CLR,,0.19,WeatherDisplay:10.37,2013-10-04 19:08:00,
2013-10-04 15:13:00,71.9,65.0,29.96,South,189,0.0,0.0,79,0.00,CLR,,0.19,WeatherDisplay:10.37,2013-10-04 19:13:00,
2013-10-04 15:18:00,72.1,65.2,29.96,South,191,0.0,0.1,79,0.00,CLR,,0.19,WeatherDisplay:10.37,2013-10-04 19:18:00,
2013-10-04 15:23:00,72.4,65.2,29.96,South,191,0.0,0.0,78,0.00,CLR,,0.19,WeatherDisplay:10.37,2013-10-04 19:23:00,
2013-10-04 15:28:00,72.4,64.8,29.97,SSW,193,0.0,0.0,77,0.00,CLR,,0.19,WeatherDisplay:10.37,2013-10-04 19:28:00,
2013-10-04 15:33:00,72.9,65.3,29.97,SSW,206,0.0,0.0,77,0.00,CLR,,0.19,WeatherDisplay:10.37,2013-10-04 19:33:00,
2013-10-04 15:38:00,72.3,65.4,29.96,NNE,25,6.9,6.9,79,0.00,CLR,,0.19,WeatherDisplay:10.37,2013-10-04 19:38:00,
2013-10-04 15:43:00,72.0,65.5,29.96,NNE,25,6.9,6.9,80,0.00,CLR,,0.19,WeatherDisplay:10.37,2013-10-04 19:43:00,
2013-10-04 15:48:00,71.3,65.2,29.96,North,11,6.9,6.9,81,0.00,CLR,,0.19,WeatherDisplay:10.37,2013-10-04 19:48:00,
2013-10-04 15:53:00,70.7,64.6,29.96,NE,35,12.7,12.7,81,0.00,CLR,,0.19,WeatherDisplay:10.37,2013-10-04 19:53:00,
2013-10-04 15:58:00,70.2,64.4,29.96,NE,35,6.9,6.9,82,0.00,CLR,,0.19,WeatherDisplay:10.37,2013-10-04 19:58:00,
2013-10-04 16:03:00,69.8,64.4,29.97,NE,39,10.4,10.4,83,0.00,CLR,,0.19,WeatherDisplay:10.37,2013-10-04 20:03:00,
2013-10-04 16:08:00,69.2,64.2,29.97,NNE,20,8.1,8.1,84,0.00,CLR,,0.19,WeatherDisplay:10.37,2013-10-04 20:08:00,
2013-10-04 16:13:00,69.0,64.0,29.97,NNE,20,9.6,9.6,84,0.00,CLR,,0.19,WeatherDisplay:10.37,2013-10-04 20:13:00,
2013-10-04 16:18:00,68.7,63.7,29.97,North,8,6.9,6.9,84,0.00,CLR,,0.19,WeatherDisplay:10.37,2013-10-04 20:18:00,
2013-10-04 16:23:00,68.2,63.2,29.96,NNE,25,10.4,10.4,84,0.00,CLR,,0.19,WeatherDisplay:10.37,2013-10-04 20:23:00,
2013-10-04 16:28:00,68.1,63.1,29.96,NE,39,11.5,11.5,84,0.00,CLR,,0.19,WeatherDisplay:10.37,2013-10-04 20:28:00,
2013-10-04 16:33:00,68.3,63.3,29.97,ENE,61,8.1,8.3,84,0.00,CLR,,0.19,WeatherDisplay:10.37,2013-10-04 20:33:00,
2013-10-04 16:38:00,68.4,63.4,29.96,NNE,20,10.4,10.4,84,0.00,CLR,,0.19,WeatherDisplay:10.37,2013-10-04 20:38:00,
2013-10-04 16:43:00,68.5,63.5,29.97,ENE,64,9.2,9.2,84,0.00,CLR,,0.19,WeatherDisplay:10.37,2013-10-04 20:43:00,
2013-10-04 16:48:00,68.1,63.1,29.97,NNE,15,11.5,11.5,84,0.00,CLR,,0.19,WeatherDisplay:10.37,2013-10-04 20:48:00,
2013-10-04 16:53:00,68.4,63.4,29.97,NNE,31,8.1,8.1,84,0.00,CLR,,0.19,WeatherDisplay:10.37,2013-10-04 20:53:00,
2013-10-04 16:58:00,68.3,63.3,29.97,North,8,6.9,6.9,84,0.00,CLR,,0.19,WeatherDisplay:10.37,2013-10-04 20:58:00,
2013-10-04 17:03:00,68.1,63.1,29.97,NE,56,5.8,5.8,84,0.00,CLR,,0.19,WeatherDisplay:10.37,2013-10-04 21:03:00,
2013-10-04 17:08:00,68.1,63.1,29.98,NNE,29,8.1,8.1,84,0.00,CLR,,0.19,WeatherDisplay:10.37,2013-10-04 21:08:00,
2013-10-04 17:13:00,67.6,62.6,29.98,ENE,60,10.4,10.4,84,0.00,CLR,,0.19,WeatherDisplay:10.37,2013-10-04 21:13:00,
2013-10-04 17:18:00,67.4,62.4,29.98,NNE,29,8.1,8.1,84,0.00,CLR,,0.19,WeatherDisplay:10.37,2013-10-04 21:18:00,
2013-10-04 17:23:00,67.4,62.4,29.99,NNE,31,4.6,4.6,84,0.00,CLR,,0.19,WeatherDisplay:10.37,2013-10-04 21:23:00,
2013-10-04 17:28:00,67.2,62.2,29.99,NE,42,6.9,6.9,84,0.00,CLR,,0.19,WeatherDisplay:10.37,2013-10-04 21:28:00,
2013-10-04 17:33:00,66.8,62.1,29.99,NNE,15,10.4,10.4,85,0.00,CLR,,0.19,WeatherDisplay:10.37,2013-10-04 21:33:00,
2013-10-04 17:38:00,66.5,61.8,29.99,NE,35,6.9,6.9,85,0.00,CLR,,0.19,WeatherDisplay:10.37,2013-10-04 21:38:00,
2013-10-04 17:43:00,66.2,61.9,29.99,NNE,31,6.9,6.9,86,0.00,CLR,,0.19,WeatherDisplay:10.37,2013-10-04 21:43:00,
2013-10-04 17:48:00,65.9,61.6,30.00,NNE,20,8.1,8.1,86,0.00,CLR,,0.19,WeatherDisplay:10.37,2013-10-04 21:48:00,
2013-10-04 17:53:00,65.7,61.4,30.00,NE,35,12.7,12.7,86,0.00,CLR,,0.19,WeatherDisplay:10.37,2013-10-04 21:53:00,
2013-10-04 17:58:00,65.3,61.3,29.99,NE,37,10.4,10.4,87,0.00,CLR,,0.19,WeatherDisplay:10.37,2013-10-04 21:58:00,
2013-10-04 18:04:00,65.1,61.1,29.99,NE,41,10.4,10.4,87,0.00,CLR,,0.19,WeatherDisplay:10.37,2013-10-04 22:04:00,
2013-10-04 18:09:00,64.8,60.8,30.00,NNE,29,13.8,13.8,87,0.00,CLR,,0.19,WeatherDisplay:10.37,2013-10-04 22:09:00,
2013-10-04 18:14:00,64.3,60.7,30.00,North,6,10.4,10.4,88,0.00,CLR,,0.19,WeatherDisplay:10.37,2013-10-04 22:14:00,
2013-10-04 18:19:00,64.1,60.5,30.00,NE,37,10.4,10.4,88,0.00,CLR,,0.19,WeatherDisplay:10.37,2013-10-04 22:19:00,
2013-10-04 18:24:00,64.0,60.4,30.00,NE,43,12.7,12.7,88,0.00,CLR,,0.19,WeatherDisplay:10.37,2013-10-04 22:24:00,
2013-10-04 18:29:00,63.7,60.4,30.00,NNE,33,12.7,12.7,89,0.00,CLR,,0.19,WeatherDisplay:10.37,2013-10-04 22:29:00,
2013-10-04 18:34:00,63.6,60.3,30.00,NNE,15,12.7,12.7,89,0.00,CLR,,0.19,WeatherDisplay:10.37,2013-10-04 22:34:00,
2013-10-04 18:39:00,63.4,60.1,30.00,ENE,75,8.1,8.1,89,0.00,CLR,,0.19,WeatherDisplay:10.37,2013-10-04 22:39:00,
2013-10-04 18:44:00,63.2,59.9,30.00,NNE,29,10.4,10.4,89,0.00,CLR,,0.19,WeatherDisplay:10.37,2013-10-04 22:44:00,
2013-10-04 18:49:00,63.2,60.2,30.00,NNE,25,9.2,9.2,90,0.00,CLR,,0.19,WeatherDisplay:10.37,2013-10-04 22:49:00,
2013-10-04 18:54:00,63.0,60.0,30.00,NNE,33,10.4,10.4,90,0.00,CLR,,0.19,WeatherDisplay:10.37,2013-10-04 22:54:00,
2013-10-04 18:59:00,63.0,60.0,30.00,NE,37,8.1,8.1,90,0.00,CLR,,0.19,WeatherDisplay:10.37,2013-10-04 22:59:00,
2013-10-04 19:04:00,62.8,59.8,30.00,NNE,20,10.4,10.4,90,0.00,CLR,,0.19,WeatherDisplay:10.37,2013-10-04 23:04:00,
2013-10-04 19:09:00,62.6,59.6,30.01,NNE,15,8.1,8.1,90,0.00,CLR,,0.19,WeatherDisplay:10.37,2013-10-04 23:09:00,
2013-10-04 19:14:00,62.5,59.5,30.01,ENE,75,10.4,10.4,90,0.00,CLR,,0.19,WeatherDisplay:10.37,2013-10-04 23:14:00,
2013-10-04 19:19:00,62.5,59.5,30.01,NE,49,6.9,6.9,90,0.00,CLR,,0.19,WeatherDisplay:10.37,2013-10-04 23:19:00,
2013-10-04 19:24:00,62.6,59.6,30.01,NE,45,5.8,5.8,90,0.00,CLR,,0.19,WeatherDisplay:10.37,2013-10-04 23:24:00,
2013-10-04 19:29:00,62.4,59.4,30.01,NE,53,9.2,9.2,90,0.00,CLR,,0.19,WeatherDisplay:10.37,2013-10-04 23:29:00,
2013-10-04 19:34:00,62.5,59.5,30.01,NNE,29,8.1,0.0,90,0.00,CLR,,0.19,WeatherDisplay:10.37,2013-10-04 23:34:00,
2013-10-04 19:39:00,62.5,59.5,30.01,ENE,58,6.9,6.9,90,0.00,CLR,,0.19,WeatherDisplay:10.37,2013-10-04 23:39:00,
2013-10-04 19:44:00,62.3,59.3,30.02,NNE,15,12.7,12.7,90,0.00,CLR,,0.19,WeatherDisplay:10.37,2013-10-04 23:44:00,
2013-10-04 19:49:00,62.3,59.3,30.02,NNE,25,12.7,12.7,90,0.00,CLR,,0.19,WeatherDisplay:10.37,2013-10-04 23:49:00,
2013-10-04 19:54:00,62.2,59.2,30.02,NE,46,15.0,15.0,90,0.00,CLR,,0.19,WeatherDisplay:10.37,2013-10-04 23:54:00,
2013-10-04 19:59:00,62.1,59.1,30.01,NNE,29,11.5,11.5,90,0.00,CLR,,0.19,WeatherDisplay:10.37,2013-10-04 23:59:00,
2013-10-04 20:04:00,62.1,59.1,30.02,NNE,33,15.0,15.0,90,0.00,CLR,,0.19,WeatherDisplay:10.37,2013-10-05 00:04:00,
2013-10-04 20:09:00,62.1,59.1,30.02,NNE,25,10.4,10.4,90,0.00,CLR,,0.19,WeatherDisplay:10.37,2013-10-05 00:09:00,
2013-10-04 20:14:00,62.1,59.1,30.02,NE,37,12.7,12.7,90,0.00,CLR,,0.19,WeatherDisplay:10.37,2013-10-05 00:14:00,
2013-10-04 20:19:00,62.0,59.0,30.02,NE,44,11.5,11.5,90,0.00,CLR,,0.19,WeatherDisplay:10.37,2013-10-05 00:19:00,
2013-10-04 20:24:00,62.0,59.0,30.02,NNE,25,8.1,8.1,90,0.00,CLR,,0.19,WeatherDisplay:10.37,2013-10-05 00:24:00,
2013-10-04 20:29:00,62.0,59.0,30.02,NNE,25,13.8,13.8,90,0.00,CLR,,0.19,WeatherDisplay:10.37,2013-10-05 00:29:00,
2013-10-04 20:34:00,61.8,58.8,30.03,NE,44,10.4,10.4,90,0.00,CLR,,0.19,WeatherDisplay:10.37,2013-10-05 00:34:00,
2013-10-04 20:39:00,61.8,59.1,30.02,North,8,12.7,12.7,91,0.00,CLR,,0.19,WeatherDisplay:10.37,2013-10-05 00:39:00,
2013-10-04 20:44:00,61.7,58.7,30.02,North,6,16.1,16.1,90,0.00,CLR,,0.19,WeatherDisplay:10.37,2013-10-05 00:44:00,
2013-10-04 20:49:00,61.6,58.6,30.03,NE,39,13.8,13.8,90,0.00,CLR,,0.19,WeatherDisplay:10.37,2013-10-05 00:49:00,
2013-10-04 20:54:00,61.5,58.5,30.03,NE,39,16.1,16.1,90,0.00,CLR,,0.19,WeatherDisplay:10.37,2013-10-05 00:54:00,
2013-10-04 20:59:00,61.5,58.5,30.02,East,81,10.4,11.3,90,0.00,CLR,,0.19,WeatherDisplay:10.37,2013-10-05 00:59:00,
2013-10-04 21:04:00,61.5,58.8,30.03,NNE,20,6.9,6.9,91,0.00,CLR,,0.19,WeatherDisplay:10.37,2013-10-05 01:04:00,
2013-10-04 21:09:00,61.5,58.8,30.03,NNE,25,4.6,5.3,91,0.00,CLR,,0.19,WeatherDisplay:10.37,2013-10-05 01:09:00,
2013-10-04 21:14:00,61.4,58.7,30.03,North,11,6.9,6.9,91,0.00,CLR,,0.19,WeatherDisplay:10.37,2013-10-05 01:14:00,
2013-10-04 21:19:00,61.4,58.7,30.03,NNE,25,6.9,6.9,91,0.00,CLR,,0.19,WeatherDisplay:10.37,2013-10-05 01:19:00,
2013-10-04 21:24:00,61.5,58.8,30.03,NNE,25,6.4,6.4,91,0.00,CLR,,0.19,WeatherDisplay:10.37,2013-10-05 01:24:00,
2013-10-04 21:29:00,61.4,58.7,30.02,ENE,57,10.4,0.0,91,0.00,CLR,,0.19,WeatherDisplay:10.37,2013-10-05 01:29:00,
2013-10-04 21:34:00,61.4,58.7,30.02,North,351,3.5,3.5,91,0.00,CLR,,0.19,WeatherDisplay:10.37,2013-10-05 01:34:00,
2013-10-04 21:39:00,61.3,58.7,30.03,NE,43,8.1,8.1,91,0.00,CLR,,0.19,WeatherDisplay:10.37,2013-10-05 01:39:00,
2013-10-04 21:44:00,61.2,58.6,30.03,NE,46,1.2,0.0,91,0.00,CLR,,0.19,WeatherDisplay:10.37,2013-10-05 01:44:00,
2013-10-04 21:49:00,61.2,58.6,30.02,NE,42,0.0,0.7,91,0.00,CLR,,0.19,WeatherDisplay:10.37,2013-10-05 01:49:00,
2013-10-04 21:54:00,61.3,58.7,30.02,NE,48,0.0,1.3,91,0.00,CLR,,0.19,WeatherDisplay:10.37,2013-10-05 01:54:00,
2013-10-04 21:59:00,61.2,58.6,30.02,NNE,20,5.8,5.8,91,0.00,CLR,,0.19,WeatherDisplay:10.37,2013-10-05 01:59:00,
2013-10-04 22:04:00,61.2,58.6,30.02,ENE,64,0.0,0.0,91,0.00,CLR,,0.19,WeatherDisplay:10.37,2013-10-05 02:04:00,
2013-10-04 22:09:00,61.2,58.6,30.02,ENE,63,0.0,0.0,91,0.00,CLR,,0.19,WeatherDisplay:10.37,2013-10-05 02:09:00,
2013-10-04 22:14:00,61.2,58.6,30.02,NNE,25,3.5,3.5,91,0.00,CLR,,0.19,WeatherDisplay:10.37,2013-10-05 02:14:00,
2013-10-04 22:19:00,61.1,58.5,30.02,NE,38,0.0,0.1,91,0.00,CLR,,0.19,WeatherDisplay:10.37,2013-10-05 02:19:00,
2013-10-04 22:24:00,61.0,58.4,30.02,North,9,8.1,8.1,91,0.00,CLR,,0.19,WeatherDisplay:10.37,2013-10-05 02:24:00,
2013-10-04 22:30:00,60.9,58.3,30.03,NE,37,5.8,5.8,91,0.00,CLR,,0.19,WeatherDisplay:10.37,2013-10-05 02:30:00,
2013-10-04 22:35:00,60.8,58.2,30.05,NNW,343,9.6,9.6,91,0.00,CLR,,0.19,WeatherDisplay:10.37,2013-10-05 02:35:00,
2013-10-04 22:40:00,60.7,58.1,30.06,NNE,15,11.5,11.5,91,0.00,CLR,,0.19,WeatherDisplay:10.37,2013-10-05 02:40:00,
2013-10-04 22:45:00,60.9,58.3,30.05,NNE,29,10.4,10.4,91,0.00,CLR,,0.19,WeatherDisplay:10.37,2013-10-05 02:45:00,
2013-10-04 22:50:00,60.9,58.6,30.05,NNE,15,0.0,0.0,92,0.00,CLR,,0.19,WeatherDisplay:10.37,2013-10-05 02:50:00,
2013-10-04 22:55:00,61.9,59.5,30.05,North,9,3.5,0.0,92,0.01,RA,,0.20,WeatherDisplay:10.37,2013-10-05 02:55:00,
2013-10-04 23:00:00,61.9,59.5,30.03,SE,143,0.0,0.0,92,0.01,RA,,0.20,WeatherDisplay:10.37,2013-10-05 03:00:00,
2013-10-04 23:05:00,62.0,59.6,30.03,North,11,0.0,2.8,92,0.01,CLR,,0.20,WeatherDisplay:10.37,2013-10-05 03:05:00,
2013-10-04 23:10:00,61.9,59.9,30.03,NNE,20,10.4,10.4,93,0.01,CLR,,0.20,WeatherDisplay:10.37,2013-10-05 03:10:00,
2013-10-04 23:15:00,61.7,59.7,30.03,NE,42,5.8,5.8,93,0.01,CLR,,0.20,WeatherDisplay:10.37,2013-10-05 03:15:00,
2013-10-04 23:20:00,61.7,59.7,30.03,NNE,30,0.0,0.0,93,0.01,CLR,,0.20,WeatherDisplay:10.37,2013-10-05 03:20:00,
2013-10-04 23:25:00,61.7,59.7,30.03,NNE,30,0.0,0.0,93,0.01,CLR,,0.20,WeatherDisplay:10.37,2013-10-05 03:25:00,
2013-10-04 23:30:00,61.7,59.7,30.03,NNE,30,0.0,0.0,93,0.01,CLR,,0.20,WeatherDisplay:10.37,2013-10-05 03:30:00,
2013-10-04 23:35:00,61.7,59.7,30.03,NNE,30,0.0,0.0,93,0.01,CLR,,0.20,WeatherDisplay:10.37,2013-10-05 03:35:00,
2013-10-04 23:40:00,61.9,59.9,30.03,NNE,30,0.0,0.0,93,0.01,CLR,,0.20,WeatherDisplay:10.37,2013-10-05 03:40:00,
2013-10-04 23:45:00,61.8,59.8,30.03,NNE,30,0.0,0.0,93,0.01,CLR,,0.20,WeatherDisplay:10.37,2013-10-05 03:45:00,
2013-10-04 23:50:00,61.7,59.7,30.03,NNE,20,3.5,0.0,93,0.01,CLR,,0.20,WeatherDisplay:10.37,2013-10-05 03:50:00,
2013-10-04 23:55:00,61.8,59.8,30.03,NNE,20,0.0,0.0,93,0.00,CLR,,0.20,WeatherDisplay:10.37,2013-10-05 03:55:00,